In Rescue
 
Open Full Screen Window  High Contrast Mode
Wind Gusting 00 knots
07
July 25, 2021 9:40 AM EDT
Weather Information
Wind Direction
  290 °
Wind Speed
  07 kt (8 mph)
Wind Gust
  00 kt (0 mph)
Altimeter
29.87 in
Visibility
10 SM
Temperature
24° C
75° F
Dewpoint
16° C
61° F
Humidity
61%
1hr Rain Fall
00.00 in.
24hr Rain Fall
00.00 in.
Sky Condition
Clear
VFR

METAR KY31 251340Z AUTO 29007KT 10SM CLR 24/16 A2987 RMK AO2 T02440161

FAA Disclaimer: The data displayed is for advisory purposes only and is not to be used for flight planning or operations.